createdAt,value
2022-09-11T00:02:16.929Z,13.98
2022-09-11T00:04:40.475Z,11.52
2022-09-11T00:07:04.102Z,13.43
2022-09-11T00:09:27.715Z,8.93
2022-09-11T00:11:51.811Z,11.68
2022-09-11T00:14:15.959Z,10.57
2022-09-11T00:16:44.897Z,11.32
2022-09-11T00:19:11.805Z,10.85
2022-09-11T00:21:35.894Z,12.07
2022-09-11T00:24:00.109Z,9.45
2022-09-11T00:26:24.791Z,12.68
2022-09-11T00:28:50.565Z,12.65
2022-09-11T00:31:17.686Z,10.88
2022-09-11T00:33:43.323Z,11.80
2022-09-11T00:36:10.086Z,10.80
2022-09-11T00:38:37.250Z,9.88
2022-09-11T00:41:02.675Z,9.45
2022-09-11T00:43:27.319Z,11.82
2022-09-11T00:45:57.728Z,11.65
2022-09-11T00:48:25.891Z,10.50
2022-09-11T00:50:52.235Z,10.50
2022-09-11T00:53:18.828Z,13.20
2022-09-11T00:55:50.736Z,9.30
2022-09-11T00:58:19.569Z,10.05
2022-09-11T01:00:45.975Z,8.70
2022-09-11T01:03:09.647Z,10.20
2022-09-11T01:05:34.859Z,10.90
2022-09-11T01:07:59.855Z,10.25
2022-09-11T01:10:48.115Z,8.55
2022-09-11T01:13:20.723Z,10.98
2022-09-11T01:15:53.804Z,8.38
2022-09-11T01:18:26.143Z,14.30
2022-09-11T01:21:09.573Z,12.70
2022-09-11T01:24:01.564Z,11.82
2022-09-11T01:27:08.328Z,10.63
2022-09-11T01:29:40.474Z,9.73
2022-09-11T01:32:11.824Z,8.20
2022-09-11T01:34:45.350Z,8.18
2022-09-11T01:37:15.564Z,9.27
2022-09-11T01:39:47.837Z,8.93
2022-09-11T01:42:16.948Z,8.52
2022-09-11T01:44:46.859Z,10.95
2022-09-11T01:47:12.018Z,11.52
2022-09-11T01:49:39.952Z,9.82
2022-09-11T01:52:10.582Z,12.30
2022-09-11T01:54:39.422Z,10.95
2022-09-11T01:57:09.661Z,13.75
2022-09-11T01:59:39.957Z,12.55
2022-09-11T02:02:09.564Z,10.52
2022-09-11T02:04:39.016Z,9.48
2022-09-11T02:07:08.023Z,8.80
2022-09-11T02:09:37.633Z,11.98
2022-09-11T02:12:07.155Z,10.50
2022-09-11T02:14:38.558Z,9.55
2022-09-11T02:17:12.311Z,11.80
2022-09-11T02:19:37.074Z,8.48
2022-09-11T02:22:01.008Z,9.07
2022-09-11T02:24:24.925Z,12.73
2022-09-11T02:26:53.944Z,13.98
2022-09-11T02:29:17.968Z,12.07
2022-09-11T02:31:42.427Z,12.13
2022-09-11T02:34:07.518Z,9.10
2022-09-11T02:36:59.718Z,11.75
2022-09-11T02:39:47.257Z,10.68
2022-09-11T02:42:28.864Z,11.30
2022-09-11T02:45:04.914Z,14.27
2022-09-11T02:47:44.006Z,12.38
2022-09-11T02:50:23.735Z,12.93
2022-09-11T02:52:57.703Z,14.27
2022-09-11T02:55:26.691Z,13.98
2022-09-11T02:57:58.767Z,13.60
2022-09-11T03:00:23.503Z,14.10
2022-09-11T03:02:49.280Z,20.05
2022-09-11T03:05:14.618Z,20.58
2022-09-11T03:07:39.215Z,25.15
2022-09-11T03:10:02.855Z,28.17
2022-09-11T03:12:27.295Z,28.85
2022-09-11T03:14:50.887Z,29.17
2022-09-11T03:17:14.616Z,25.30
2022-09-11T03:19:38.231Z,30.30
2022-09-11T03:22:03.351Z,26.63
2022-09-11T03:24:27.295Z,26.42
2022-09-11T03:26:50.884Z,23.35
2022-09-11T03:29:14.751Z,28.23
2022-09-11T03:31:39.672Z,27.77
2022-09-11T03:34:04.602Z,27.00
2022-09-11T03:36:28.268Z,25.17
2022-09-11T03:38:55.111Z,23.75
2022-09-11T03:41:19.019Z,24.73
2022-09-11T03:43:42.701Z,25.88
2022-09-11T03:46:06.486Z,26.85
2022-09-11T03:48:30.443Z,27.17
2022-09-11T03:50:54.600Z,28.85
2022-09-11T03:53:19.223Z,27.17
2022-09-11T03:55:46.278Z,36.03
2022-09-11T03:58:09.896Z,36.78
2022-09-11T04:00:37.657Z,33.22
2022-09-11T04:03:02.120Z,32.67
2022-09-11T04:05:32.587Z,45.33
2022-09-11T04:07:57.651Z,34.92
2022-09-11T04:10:21.491Z,39.60
2022-09-11T04:12:46.780Z,39.53
2022-09-11T04:15:11.002Z,40.17
2022-09-11T04:17:34.964Z,45.08
2022-09-11T04:19:59.070Z,40.15
2022-09-11T04:22:23.950Z,38.28
2022-09-11T04:24:48.239Z,36.30
2022-09-11T04:27:12.344Z,36.33
2022-09-11T04:29:37.716Z,35.50
2022-09-11T04:32:04.822Z,44.70
2022-09-11T04:34:31.558Z,39.70
2022-09-11T04:36:55.538Z,41.78
2022-09-11T04:39:19.768Z,41.85
2022-09-11T04:41:45.255Z,41.75
2022-09-11T04:44:09.020Z,41.95
2022-09-11T04:46:39.871Z,42.50
2022-09-11T04:49:04.893Z,46.60
2022-09-11T04:51:32.178Z,45.60
2022-09-11T04:53:57.943Z,44.80
2022-09-11T04:56:29.211Z,55.38
2022-09-11T04:58:58.919Z,45.75
2022-09-11T05:01:29.287Z,44.35
2022-09-11T05:03:56.391Z,43.58
2022-09-11T05:06:20.118Z,46.38
2022-09-11T05:08:46.455Z,51.13
2022-09-11T05:11:15.097Z,50.88
2022-09-11T05:13:38.837Z,55.67
2022-09-11T05:16:03.663Z,44.95
2022-09-11T05:18:27.543Z,59.30
2022-09-11T05:21:01.703Z,52.85
2022-09-11T05:23:25.843Z,56.72
2022-09-11T05:25:50.155Z,50.97
2022-09-11T05:28:13.826Z,60.17
2022-09-11T05:30:37.501Z,62.95
2022-09-11T05:33:01.160Z,55.72
2022-09-11T05:35:29.210Z,57.17
2022-09-11T05:37:56.799Z,53.30
2022-09-11T05:40:20.315Z,53.85
2022-09-11T05:42:43.869Z,54.50
2022-09-11T05:45:09.134Z,56.78
2022-09-11T05:47:34.512Z,55.20
2022-09-11T05:49:58.047Z,47.13
2022-09-11T05:52:22.422Z,63.67
2022-09-11T05:54:48.942Z,46.80
2022-09-11T05:57:12.839Z,51.75
2022-09-11T05:59:36.719Z,42.35
2022-09-11T06:02:00.421Z,43.17
2022-09-11T06:04:35.751Z,44.10
2022-09-11T06:06:59.351Z,43.17
2022-09-11T06:09:24.608Z,41.03
2022-09-11T06:11:50.420Z,43.88
2022-09-11T06:14:14.120Z,41.53
2022-09-11T06:16:41.035Z,35.65
2022-09-11T06:19:08.672Z,39.00
2022-09-11T06:21:32.404Z,38.25
2022-09-11T06:24:05.822Z,35.97
2022-09-11T06:26:31.000Z,41.33
2022-09-11T06:28:57.201Z,37.05
2022-09-11T06:31:24.356Z,34.10
2022-09-11T06:33:50.173Z,36.55
2022-09-11T06:36:16.636Z,30.45
2022-09-11T06:38:40.545Z,29.45
2022-09-11T06:41:12.688Z,33.53
2022-09-11T06:43:36.527Z,35.38
2022-09-11T06:46:07.189Z,32.50
2022-09-11T06:48:31.878Z,29.85
2022-09-11T06:50:55.655Z,31.67
2022-09-11T06:53:19.219Z,32.35
2022-09-11T06:55:48.805Z,27.42
2022-09-11T06:58:13.689Z,30.55
2022-09-11T07:00:38.104Z,29.35
2022-09-11T07:03:03.257Z,30.52
2022-09-11T07:05:27.535Z,30.52
2022-09-11T07:07:54.252Z,29.95
2022-09-11T07:10:18.180Z,29.63
2022-09-11T07:12:46.125Z,30.98
2022-09-11T07:15:12.007Z,29.05
2022-09-11T07:17:36.446Z,29.00
2022-09-11T07:20:02.166Z,28.80
2022-09-11T07:22:26.571Z,25.73
2022-09-11T07:24:54.964Z,26.48
2022-09-11T07:27:19.402Z,25.70
2022-09-11T07:29:44.190Z,29.67
2022-09-11T07:32:07.921Z,26.70
2022-09-11T07:34:31.902Z,25.25
2022-09-11T07:37:01.637Z,24.02
2022-09-11T07:39:25.360Z,28.17
2022-09-11T07:42:03.075Z,25.13
2022-09-11T07:44:29.508Z,26.13
2022-09-11T07:46:54.215Z,24.25
2022-09-11T07:49:17.859Z,22.90
2022-09-11T07:51:41.539Z,23.05
2022-09-11T07:54:08.158Z,25.63
2022-09-11T07:56:36.363Z,24.08
2022-09-11T07:59:02.650Z,23.25
2022-09-11T08:01:30.515Z,25.85
2022-09-11T08:03:58.346Z,22.23
2022-09-11T08:06:24.375Z,25.02
2022-09-11T08:08:54.760Z,23.27
2022-09-11T08:11:20.932Z,20.52
2022-09-11T08:13:50.838Z,23.08
2022-09-11T08:16:16.665Z,23.30
2022-09-11T08:18:40.255Z,21.50
2022-09-11T08:21:05.224Z,20.13
2022-09-11T08:23:31.213Z,20.95
2022-09-11T08:25:57.360Z,16.55
2022-09-11T08:28:22.387Z,20.00
2022-09-11T08:30:45.976Z,18.83
2022-09-11T08:33:09.730Z,18.75
2022-09-11T08:35:35.519Z,19.20
2022-09-11T08:38:00.120Z,17.52
2022-09-11T08:40:24.294Z,18.23
2022-09-11T08:42:49.075Z,18.95
2022-09-11T08:45:18.286Z,19.15
2022-09-11T08:47:42.823Z,18.23
2022-09-11T08:50:13.567Z,17.17
2022-09-11T08:52:37.969Z,18.55
2022-09-11T08:55:06.878Z,16.67
2022-09-11T08:57:45.727Z,20.70
2022-09-11T09:00:21.130Z,17.33
2022-09-11T09:03:39.324Z,17.30
2022-09-11T09:06:24.740Z,16.27
2022-09-11T09:09:00.709Z,18.67
2022-09-11T09:11:36.289Z,15.40
2022-09-11T09:14:34.251Z,16.02
2022-09-11T09:17:04.137Z,15.70
2022-09-11T09:19:36.409Z,16.77
2022-09-11T09:22:10.965Z,16.85
2022-09-11T09:24:42.593Z,17.02
2022-09-11T09:27:10.453Z,17.98
2022-09-11T09:29:40.576Z,16.40
2022-09-11T09:32:17.119Z,18.75
2022-09-11T09:34:45.916Z,20.38
2022-09-11T09:37:20.364Z,16.17
2022-09-11T09:39:44.756Z,18.77
2022-09-11T09:43:06.499Z,19.83
2022-09-11T09:45:52.034Z,17.65
2022-09-11T09:48:17.546Z,19.52
2022-09-11T09:50:43.965Z,16.67
2022-09-11T09:53:17.267Z,17.73
2022-09-11T09:55:42.434Z,14.57
2022-09-11T09:58:07.211Z,15.35
2022-09-11T10:00:32.757Z,13.40
2022-09-11T10:02:58.162Z,13.60
2022-09-11T10:05:28.513Z,15.43
2022-09-11T10:07:54.834Z,15.75
2022-09-11T10:10:40.624Z,15.82
2022-09-11T10:13:19.079Z,16.35
2022-09-11T10:15:43.386Z,13.85
2022-09-11T10:18:40.183Z,17.13
2022-09-11T10:21:29.419Z,14.25
2022-09-11T10:23:56.023Z,14.52
2022-09-11T10:26:27.181Z,14.45
2022-09-11T10:28:51.202Z,14.13
2022-09-11T10:31:17.607Z,15.93
2022-09-11T10:33:46.659Z,15.15
2022-09-11T10:36:11.784Z,13.05
2022-09-11T10:38:47.992Z,10.55
2022-09-11T10:41:19.289Z,11.30
2022-09-11T10:43:49.207Z,12.02
2022-09-11T10:46:39.906Z,13.38
2022-09-11T10:49:17.597Z,14.90
2022-09-11T10:51:47.385Z,13.15
2022-09-11T10:54:32.727Z,10.70
2022-09-11T10:57:06.127Z,14.77
2022-09-11T10:59:39.485Z,17.38
2022-09-11T11:02:03.521Z,12.68
2022-09-11T11:04:30.615Z,13.85
2022-09-11T11:07:09.927Z,10.20
2022-09-11T11:09:54.439Z,12.45
2022-09-11T11:12:41.426Z,11.00
2022-09-11T11:15:32.121Z,10.32
2022-09-11T11:18:24.098Z,11.63
2022-09-11T11:20:56.339Z,12.55
2022-09-11T11:23:47.031Z,11.15
2022-09-11T11:26:33.075Z,7.97
2022-09-11T11:29:29.776Z,8.05
2022-09-11T11:32:11.667Z,7.30
2022-09-11T11:35:01.512Z,9.57
2022-09-11T11:37:32.539Z,8.93
2022-09-11T11:40:03.527Z,6.82
2022-09-11T11:42:34.969Z,8.63
2022-09-11T11:45:03.885Z,10.05
2022-09-11T11:47:32.843Z,8.05
2022-09-11T11:50:03.318Z,8.30
2022-09-11T11:52:41.914Z,10.40
2022-09-11T11:55:18.063Z,7.78
2022-09-11T11:57:49.431Z,8.80
2022-09-11T12:00:17.517Z,10.48
2022-09-11T12:02:49.509Z,9.60
2022-09-11T12:05:18.366Z,10.60
2022-09-11T12:07:42.432Z,9.65
2022-09-11T12:10:18.788Z,8.98
2022-09-11T12:12:50.374Z,6.55
2022-09-11T12:15:23.302Z,7.28
2022-09-11T12:17:49.404Z,7.38
2022-09-11T12:20:36.203Z,6.13
2022-09-11T12:23:01.806Z,5.05
2022-09-11T12:26:06.346Z,4.60
2022-09-11T12:28:31.294Z,6.05
2022-09-11T12:31:06.155Z,5.70
2022-09-11T12:33:56.268Z,4.90
2022-09-11T12:36:30.076Z,6.50
2022-09-11T12:38:58.131Z,4.90
2022-09-11T12:41:30.140Z,6.68
2022-09-11T12:43:55.835Z,4.88
2022-09-11T12:47:14.598Z,5.90
2022-09-11T12:49:39.392Z,7.57
2022-09-11T12:52:03.423Z,7.57
2022-09-11T12:54:32.007Z,10.35
2022-09-11T12:57:03.386Z,7.72
2022-09-11T12:59:34.164Z,8.30
2022-09-11T13:01:58.646Z,7.28
2022-09-11T13:04:26.375Z,7.15
2022-09-11T13:06:54.884Z,6.82
2022-09-11T13:09:23.466Z,6.05
2022-09-11T13:11:49.882Z,6.55
2022-09-11T13:14:52.943Z,6.47
2022-09-11T13:17:30.267Z,6.32
2022-09-11T13:19:58.595Z,9.45
2022-09-11T13:22:25.708Z,6.47
2022-09-11T13:24:51.970Z,8.60
2022-09-11T13:27:23.863Z,9.32
2022-09-11T13:29:49.615Z,9.68
2022-09-11T13:32:17.798Z,8.23
2022-09-11T13:34:46.611Z,7.60
2022-09-11T13:37:14.038Z,7.60
2022-09-11T13:39:41.606Z,7.45
2022-09-11T13:42:05.558Z,8.20
2022-09-11T13:44:38.034Z,8.35
2022-09-11T13:47:06.395Z,9.07
2022-09-11T13:49:36.339Z,6.63
2022-09-11T13:52:00.627Z,5.80
2022-09-11T13:54:30.786Z,4.32
2022-09-11T13:57:14.878Z,4.97
2022-09-11T13:59:43.016Z,3.45
2022-09-11T14:02:20.793Z,3.50
2022-09-11T14:04:46.356Z,4.70
2022-09-11T14:07:22.563Z,3.50
2022-09-11T14:09:52.487Z,3.40
2022-09-11T14:12:16.527Z,3.83
2022-09-11T14:14:42.902Z,3.55
2022-09-11T14:17:11.058Z,4.85
2022-09-11T14:19:37.860Z,4.82
2022-09-11T14:22:15.306Z,3.40
2022-09-11T14:24:39.174Z,3.47
2022-09-11T14:27:04.378Z,3.70
2022-09-11T14:29:31.506Z,6.03
2022-09-11T14:31:56.734Z,5.40
2022-09-11T14:34:23.247Z,4.88
2022-09-11T14:36:52.723Z,3.20
2022-09-11T14:39:24.500Z,5.35
2022-09-11T14:41:48.125Z,3.40
2022-09-11T14:44:15.989Z,3.60
2022-09-11T14:46:39.864Z,4.40
2022-09-11T14:49:03.446Z,4.03
2022-09-11T14:51:28.986Z,4.32
2022-09-11T14:53:52.503Z,3.53
2022-09-11T14:56:16.078Z,3.83
2022-09-11T14:58:39.750Z,3.45
2022-09-11T15:01:03.466Z,3.42
2022-09-11T15:03:27.107Z,4.55
2022-09-11T15:05:56.607Z,3.60
2022-09-11T15:08:21.535Z,3.75
2022-09-11T15:10:46.471Z,3.90
2022-09-11T15:13:10.265Z,5.53
2022-09-11T15:15:35.084Z,8.60
2022-09-11T15:17:58.601Z,6.32
2022-09-11T15:20:24.442Z,3.97
2022-09-11T15:22:48.587Z,3.55
2022-09-11T15:25:13.753Z,3.80
2022-09-11T15:27:37.342Z,6.07
2022-09-11T15:30:01.327Z,5.07
2022-09-11T15:32:25.070Z,4.93
2022-09-11T15:34:48.784Z,3.40
2022-09-11T15:37:12.879Z,6.07
2022-09-11T15:39:36.479Z,4.93
2022-09-11T15:42:01.804Z,4.03
2022-09-11T15:44:28.761Z,3.95
2022-09-11T15:46:54.946Z,3.75
2022-09-11T15:49:18.668Z,4.47
2022-09-11T15:51:42.325Z,4.43
2022-09-11T15:54:06.174Z,2.97
2022-09-11T15:56:30.533Z,3.28
2022-09-11T15:58:57.961Z,3.38
2022-09-11T16:01:24.058Z,2.75
2022-09-11T16:03:51.880Z,2.63
2022-09-11T16:06:15.418Z,2.60
2022-09-11T16:08:39.782Z,3.00
2022-09-11T16:11:05.880Z,3.08
2022-09-11T16:13:29.436Z,2.60
2022-09-11T16:16:04.112Z,3.47
2022-09-11T16:18:27.727Z,2.55
2022-09-11T16:20:58.081Z,2.97
2022-09-11T16:23:21.952Z,2.50
2022-09-11T16:25:45.492Z,4.93
2022-09-11T16:28:09.740Z,2.72
2022-09-11T16:30:43.233Z,3.08
2022-09-11T16:33:12.571Z,2.63
2022-09-11T16:35:36.321Z,3.17
2022-09-11T16:38:00.800Z,3.58
2022-09-11T16:40:24.378Z,2.60
2022-09-11T16:42:47.979Z,2.30
2022-09-11T16:45:12.079Z,3.03
2022-09-11T16:47:35.711Z,3.17
2022-09-11T16:50:08.655Z,2.80
2022-09-11T16:52:33.062Z,3.42
2022-09-11T16:54:56.583Z,2.80
2022-09-11T16:57:20.179Z,5.25
2022-09-11T16:59:43.779Z,2.88
2022-09-11T17:02:07.594Z,4.15
2022-09-11T17:04:31.242Z,2.70
2022-09-11T17:06:56.646Z,3.83
2022-09-11T17:09:20.176Z,3.00
2022-09-11T17:11:44.738Z,3.17
2022-09-11T17:14:08.290Z,3.00
2022-09-11T17:16:35.651Z,2.72
2022-09-11T17:19:01.671Z,5.13
2022-09-11T17:21:27.434Z,3.92
2022-09-11T17:23:53.985Z,6.15
2022-09-11T17:26:17.971Z,3.40
2022-09-11T17:28:42.911Z,3.50
2022-09-11T17:31:10.174Z,4.80
2022-09-11T17:33:33.867Z,2.90
2022-09-11T17:35:57.511Z,3.15
2022-09-11T17:38:21.230Z,6.75
2022-09-11T17:40:46.250Z,4.43
2022-09-11T17:43:13.046Z,5.15
2022-09-11T17:45:36.675Z,4.45
2022-09-11T17:48:01.168Z,4.20
2022-09-11T17:50:25.704Z,6.57
2022-09-11T17:52:50.750Z,8.75
2022-09-11T17:55:14.359Z,6.35
2022-09-11T17:57:41.126Z,7.25
2022-09-11T18:00:06.370Z,6.28
2022-09-11T18:02:35.539Z,6.35
2022-09-11T18:04:59.111Z,6.68
2022-09-11T18:07:22.723Z,6.03
2022-09-11T18:09:46.978Z,7.95
2022-09-11T18:12:11.364Z,7.15
2022-09-11T18:14:38.331Z,6.82
2022-09-11T18:17:01.842Z,7.38
2022-09-11T18:19:25.787Z,6.85
2022-09-11T18:21:50.734Z,6.65
2022-09-11T18:24:19.799Z,6.38
2022-09-11T18:26:44.056Z,6.80
2022-09-11T18:29:11.458Z,6.28
2022-09-11T18:31:41.601Z,7.95
2022-09-11T18:34:05.878Z,8.23
2022-09-11T18:36:31.790Z,10.13
2022-09-11T18:39:00.018Z,9.32
2022-09-11T18:41:24.738Z,9.60
2022-09-11T18:43:48.822Z,6.72
2022-09-11T18:46:12.635Z,9.73
2022-09-11T18:48:39.446Z,6.50
2022-09-11T18:51:07.706Z,8.68
2022-09-11T18:53:31.375Z,9.25
2022-09-11T18:56:00.823Z,6.70
2022-09-11T18:58:24.519Z,8.48
2022-09-11T19:00:48.103Z,8.10
2022-09-11T19:03:12.182Z,7.93
2022-09-11T19:05:37.094Z,8.25
2022-09-11T19:08:01.803Z,8.13
2022-09-11T19:10:25.579Z,8.48
2022-09-11T19:12:50.362Z,8.20
2022-09-11T19:15:13.910Z,9.25
2022-09-11T19:17:38.391Z,8.23
2022-09-11T19:20:02.180Z,6.63
2022-09-11T19:22:28.084Z,10.57
2022-09-11T19:24:52.292Z,8.63
2022-09-11T19:27:15.939Z,8.63
2022-09-11T19:29:40.020Z,7.53
2022-09-11T19:32:03.929Z,8.30
2022-09-11T19:34:27.587Z,9.68
2022-09-11T19:36:52.070Z,8.02
2022-09-11T19:39:17.076Z,11.73
2022-09-11T19:41:41.419Z,10.43
2022-09-11T19:44:07.251Z,9.18
2022-09-11T19:46:33.124Z,10.45
2022-09-11T19:49:00.722Z,12.77
2022-09-11T19:51:26.702Z,12.52
2022-09-11T19:53:51.987Z,10.70
2022-09-11T19:56:17.064Z,10.70
2022-09-11T19:58:41.054Z,12.38
2022-09-11T20:01:09.053Z,7.80
2022-09-11T20:03:32.823Z,9.63
2022-09-11T20:05:56.391Z,7.63
2022-09-11T20:08:19.944Z,9.65
2022-09-11T20:10:45.811Z,11.10
2022-09-11T20:13:11.008Z,10.80
2022-09-11T20:15:36.747Z,7.68
2022-09-11T20:18:00.506Z,7.38
2022-09-11T20:20:24.155Z,10.18
2022-09-11T20:22:47.700Z,9.73
2022-09-11T20:25:12.259Z,12.23
2022-09-11T20:27:35.927Z,8.48
2022-09-11T20:30:00.990Z,9.27
2022-09-11T20:32:24.694Z,9.10
2022-09-11T20:34:48.278Z,8.88
2022-09-11T20:37:11.773Z,7.28
2022-09-11T20:39:35.347Z,6.05
2022-09-11T20:42:00.633Z,8.50
2022-09-11T20:44:25.123Z,8.43
2022-09-11T20:46:50.072Z,8.07
2022-09-11T20:49:13.823Z,9.82
2022-09-11T20:51:37.663Z,9.52
2022-09-11T20:54:01.268Z,11.55
2022-09-11T20:56:25.094Z,12.50
2022-09-11T20:58:49.159Z,10.27
2022-09-11T21:01:16.741Z,10.05
2022-09-11T21:03:46.586Z,6.47
2022-09-11T21:06:10.727Z,10.77
2022-09-11T21:08:34.299Z,6.57
2022-09-11T21:11:02.834Z,11.27
2022-09-11T21:13:26.414Z,8.00
2022-09-11T21:15:50.128Z,8.80
2022-09-11T21:18:14.484Z,8.73
2022-09-11T21:20:39.994Z,8.80
2022-09-11T21:23:03.693Z,9.10
2022-09-11T21:25:28.183Z,8.70
2022-09-11T21:27:51.719Z,7.90
2022-09-11T21:30:15.618Z,11.50
2022-09-11T21:32:39.139Z,11.10
2022-09-11T21:35:02.685Z,7.72
2022-09-11T21:37:27.611Z,8.15
2022-09-11T21:39:51.595Z,10.93
2022-09-11T21:42:15.172Z,10.98
2022-09-11T21:44:38.706Z,9.70
2022-09-11T21:47:02.295Z,7.75
2022-09-11T21:49:25.935Z,8.88
2022-09-11T21:51:49.471Z,12.30
2022-09-11T21:54:14.616Z,7.82
2022-09-11T21:56:38.147Z,9.35
2022-09-11T21:59:02.311Z,10.68
2022-09-11T22:01:27.458Z,10.20
2022-09-11T22:03:51.497Z,8.07
2022-09-11T22:06:15.490Z,9.50
2022-09-11T22:08:41.032Z,9.52
2022-09-11T22:11:06.895Z,12.45
2022-09-11T22:13:30.876Z,6.13
2022-09-11T22:15:54.467Z,6.78
2022-09-11T22:18:20.018Z,8.32
2022-09-11T22:20:43.915Z,9.90
2022-09-11T22:23:07.578Z,9.90
2022-09-11T22:25:31.255Z,8.70
2022-09-11T22:27:56.738Z,9.25
2022-09-11T22:30:20.471Z,9.50
2022-09-11T22:32:44.035Z,7.78
2022-09-11T22:35:08.384Z,9.48
2022-09-11T22:37:31.965Z,8.50
2022-09-11T22:39:55.565Z,7.03
2022-09-11T22:42:19.110Z,7.10
2022-09-11T22:44:44.034Z,7.22
2022-09-11T22:47:07.602Z,10.55
2022-09-11T22:49:31.151Z,7.03
2022-09-11T22:51:54.803Z,11.55
2022-09-11T22:54:18.407Z,7.95
2022-09-11T22:56:41.968Z,6.82
2022-09-11T22:59:05.518Z,7.07
2022-09-11T23:01:30.495Z,8.32
2022-09-11T23:03:54.898Z,7.22
2022-09-11T23:06:36.456Z,6.35
2022-09-11T23:09:01.903Z,7.47
2022-09-11T23:11:25.781Z,8.38
2022-09-11T23:13:50.413Z,6.47
2022-09-11T23:16:15.821Z,6.07
2022-09-11T23:18:40.800Z,9.27
2022-09-11T23:21:04.542Z,6.00
2022-09-11T23:23:28.101Z,7.40
2022-09-11T23:25:52.007Z,6.07
2022-09-11T23:28:15.658Z,5.63
2022-09-11T23:30:40.027Z,5.00
2022-09-11T23:33:03.566Z,6.88
2022-09-11T23:35:28.442Z,7.22
2022-09-11T23:37:52.054Z,7.72
2022-09-11T23:40:15.672Z,4.97
2022-09-11T23:42:39.351Z,7.75
2022-09-11T23:45:02.891Z,5.55
2022-09-11T23:47:26.506Z,7.18
2022-09-11T23:49:50.014Z,6.32
2022-09-11T23:52:15.103Z,7.18
2022-09-11T23:54:38.631Z,5.43
2022-09-11T23:57:02.382Z,7.15
2022-09-11T23:59:25.938Z,7.95
